Time;durP1;ratioP1;P1;durP2;ratioP2;P2;SDS_P1;SDS_P2;PMS_P1;PMS_P2;Temp;Humidity;BMP_temperature;BMP_pressure;BME280_temperature;BME280_humidity;BME280_pressure;Samples;Min_cycle;Max_cycle;Signal;HPM_P1;HPM_P2
2023/07/19 00:00:46;;;;;;;1.52;1.42;;;;;;;;;;6310143;28;20244;-74
2023/07/19 00:03:49;;;;;;;1.02;1.02;;;;;;;;;;6314826;28;20293;-75
2023/07/19 00:06:54;;;;;;;4.85;1.45;;;;;;;;;;6315102;28;20239;-74
2023/07/19 00:09:58;;;;;;;1.48;1.02;;;;;;;;;;6315837;28;20231;-76
2023/07/19 00:13:03;;;;;;;1.25;1.20;;;;;;;;;;6316090;28;20266;-75
2023/07/19 00:16:07;;;;;;;6.88;1.20;;;;;;;;;;6315876;28;20279;-74
2023/07/19 00:19:11;;;;;;;5.78;1.30;;;;;;;;;;6315634;28;20242;-75
2023/07/19 00:22:23;;;;;;;1.95;0.90;;;;;;;;;;6314964;28;20239;-75
2023/07/19 00:25:27;;;;;;;3.53;1.10;;;;;;;;;;6315526;28;20262;-74
2023/07/19 00:28:32;;;;;;;6.90;1.25;;;;;;;;;;6314733;28;20234;-74
2023/07/19 00:31:36;;;;;;;1.23;1.00;;;;;;;;;;6297243;28;20299;-75
2023/07/19 00:34:40;;;;;;;4.75;1.45;;;;;;;;;;6314965;28;20540;-75
2023/07/19 00:37:44;;;;;;;4.97;1.60;;;;;;;;;;6314808;28;20436;-74
2023/07/19 00:40:48;;;;;;;2.60;1.10;;;;;;;;;;6314736;28;20330;-75
2023/07/19 00:43:53;;;;;;;1.52;1.10;;;;;;;;;;6314669;28;20266;-75
2023/07/19 00:46:59;;;;;;;4.75;1.35;;;;;;;;;;6295835;28;20266;-75
2023/07/19 00:50:04;;;;;;;1.45;1.20;;;;;;;;;;6297179;28;20314;-76
2023/07/19 00:53:07;;;;;;;4.47;1.60;;;;;;;;;;6295998;28;20271;-75
2023/07/19 00:56:11;;;;;;;3.65;1.17;;;;;;;;;;6314445;28;20398;-75
2023/07/19 00:59:20;;;;;;;1.30;1.23;;;;;;;;;;6315188;28;20247;-75
2023/07/19 01:02:24;;;;;;;6.45;1.15;;;;;;;;;;6311413;22;20402;-78
2023/07/19 01:05:28;;;;;;;6.18;1.45;;;;;;;;;;6289099;28;20268;-81
2023/07/19 01:08:32;;;;;;;1.45;1.30;;;;;;;;;;6289992;28;20240;-80
2023/07/19 01:11:36;;;;;;;3.13;1.58;;;;;;;;;;6288287;28;20271;-78
2023/07/19 01:14:41;;;;;;;6.60;1.50;;;;;;;;;;6286119;28;20278;-79
2023/07/19 01:17:45;;;;;;;1.42;1.33;;;;;;;;;;6288523;28;20267;-79
2023/07/19 01:20:49;;;;;;;1.83;1.52;;;;;;;;;;6287717;28;20287;-79
2023/07/19 01:23:55;;;;;;;4.50;1.40;;;;;;;;;;6289846;28;20268;-78
2023/07/19 01:26:59;;;;;;;9.45;1.40;;;;;;;;;;6289038;28;20413;-79
2023/07/19 01:30:19;;;;;;;3.08;1.73;;;;;;;;;;6286705;28;20264;-79
2023/07/19 01:33:23;;;;;;;3.10;1.30;;;;;;;;;;6289228;28;20369;-78
2023/07/19 01:36:36;;;;;;;1.55;1.25;;;;;;;;;;6286532;28;20267;-79
2023/07/19 01:39:42;;;;;;;4.88;1.42;;;;;;;;;;6287798;28;20544;-79
2023/07/19 01:42:45;;;;;;;7.45;1.70;;;;;;;;;;6286362;28;20465;-79
2023/07/19 01:45:49;;;;;;;4.07;1.30;;;;;;;;;;6288418;28;20267;-78
2023/07/19 01:48:53;;;;;;;3.25;1.40;;;;;;;;;;6286182;28;20270;-78
2023/07/19 01:51:57;;;;;;;1.67;1.33;;;;;;;;;;6288946;28;20239;-78
2023/07/19 01:55:02;;;;;;;3.25;1.58;;;;;;;;;;6286551;28;20425;-77
2023/07/19 01:58:08;;;;;;;1.42;1.20;;;;;;;;;;6286941;28;20283;-79
2023/07/19 02:01:12;;;;;;;4.72;1.50;;;;;;;;;;6286256;28;20311;-79
2023/07/19 02:04:16;;;;;;;3.40;1.45;;;;;;;;;;6288083;28;20428;-78
2023/07/19 02:07:20;;;;;;;1.83;1.33;;;;;;;;;;6287389;28;20434;-79
2023/07/19 02:10:25;;;;;;;5.32;1.25;;;;;;;;;;6288894;28;20239;-79
2023/07/19 02:13:29;;;;;;;3.95;1.40;;;;;;;;;;6288272;28;20240;-78
2023/07/19 02:16:33;;;;;;;3.08;1.40;;;;;;;;;;6288163;28;20304;-78
2023/07/19 02:19:37;;;;;;;2.80;1.30;;;;;;;;;;6288680;28;20276;-78
2023/07/19 02:22:41;;;;;;;4.47;1.60;;;;;;;;;;6286461;28;20275;-79
2023/07/19 02:25:48;;;;;;;5.07;1.38;;;;;;;;;;6287339;28;20279;-79
2023/07/19 02:28:52;;;;;;;3.92;1.45;;;;;;;;;;6285494;28;20272;-79
2023/07/19 02:31:56;;;;;;;1.40;1.30;;;;;;;;;;6291258;28;20239;-78
2023/07/19 02:34:59;;;;;;;7.03;1.58;;;;;;;;;;6285119;28;20279;-78
2023/07/19 02:38:03;;;;;;;3.67;1.45;;;;;;;;;;6287216;28;20243;-79
2023/07/19 02:41:10;;;;;;;1.38;1.20;;;;;;;;;;6287683;28;20243;-79
2023/07/19 02:44:13;;;;;;;8.30;1.85;;;;;;;;;;6287283;28;20232;-79
2023/07/19 02:47:17;;;;;;;6.03;1.70;;;;;;;;;;6287604;28;20235;-78
2023/07/19 02:50:21;;;;;;;1.40;1.27;;;;;;;;;;6284703;28;20279;-78
2023/07/19 02:53:25;;;;;;;7.05;1.50;;;;;;;;;;6287394;28;20235;-78
2023/07/19 02:56:30;;;;;;;2.95;1.40;;;;;;;;;;6284593;28;20270;-78
2023/07/19 02:59:34;;;;;;;6.18;1.60;;;;;;;;;;6285887;28;20547;-79
2023/07/19 03:02:38;;;;;;;5.75;1.75;;;;;;;;;;6284381;28;20314;-78
2023/07/19 03:05:44;;;;;;;8.85;1.70;;;;;;;;;;6284802;28;20296;-78
2023/07/19 03:08:49;;;;;;;4.70;1.52;;;;;;;;;;6286654;28;20296;-78
2023/07/19 03:11:54;;;;;;;3.67;1.90;;;;;;;;;;6284817;28;20267;-78
2023/07/19 03:14:59;;;;;;;6.82;1.70;;;;;;;;;;6284250;28;20347;-78
2023/07/19 03:18:02;;;;;;;5.55;1.60;;;;;;;;;;6285471;28;20390;-78
2023/07/19 03:21:07;;;;;;;7.40;1.73;;;;;;;;;;6285114;28;20266;-78
2023/07/19 03:24:12;;;;;;;4.80;1.92;;;;;;;;;;6285246;28;20276;-78
2023/07/19 03:27:17;;;;;;;4.15;2.03;;;;;;;;;;6286861;28;20263;-79
2023/07/19 03:30:21;;;;;;;4.63;1.58;;;;;;;;;;6284045;28;20409;-78
2023/07/19 03:33:26;;;;;;;8.52;1.50;;;;;;;;;;6285841;28;20239;-78
2023/07/19 03:36:30;;;;;;;6.05;1.85;;;;;;;;;;6285473;28;20515;-78
2023/07/19 03:39:34;;;;;;;2.05;1.30;;;;;;;;;;6284953;28;20262;-78
2023/07/19 03:42:40;;;;;;;3.35;1.80;;;;;;;;;;6283636;28;20271;-79
2023/07/19 03:45:44;;;;;;;3.40;1.42;;;;;;;;;;6286102;28;20267;-79
2023/07/19 03:48:48;;;;;;;7.88;2.15;;;;;;;;;;6284152;28;20271;-79
2023/07/19 03:51:52;;;;;;;3.05;1.58;;;;;;;;;;6284029;28;20271;-78
2023/07/19 03:54:57;;;;;;;10.95;1.80;;;;;;;;;;6285939;28;20508;-79
2023/07/19 03:58:07;;;;;;;6.60;1.88;;;;;;;;;;6284025;28;20267;-78
2023/07/19 04:01:11;;;;;;;7.95;2.28;;;;;;;;;;6283693;28;20547;-78
2023/07/19 04:04:15;;;;;;;4.10;1.90;;;;;;;;;;6283804;28;20267;-79
2023/07/19 04:07:19;;;;;;;8.38;1.90;;;;;;;;;;6285858;28;20267;-79
2023/07/19 04:10:23;;;;;;;4.35;1.98;;;;;;;;;;6285371;28;20243;-79
2023/07/19 04:13:28;;;;;;;9.52;2.40;;;;;;;;;;6285859;28;20239;-79
2023/07/19 04:16:34;;;;;;;7.18;1.95;;;;;;;;;;6284845;28;20267;-79
2023/07/19 04:19:38;;;;;;;7.38;1.80;;;;;;;;;;6284610;28;20555;-79
2023/07/19 04:22:42;;;;;;;3.22;1.85;;;;;;;;;;6284574;28;20267;-78
2023/07/19 04:25:47;;;;;;;6.53;1.80;;;;;;;;;;6283559;28;20290;-79
2023/07/19 04:28:52;;;;;;;3.33;1.95;;;;;;;;;;6284681;28;20300;-79
2023/07/19 04:31:56;;;;;;;4.30;2.10;;;;;;;;;;6285788;28;20275;-78
2023/07/19 04:35:01;;;;;;;5.82;2.05;;;;;;;;;;6284472;28;20276;-78
2023/07/19 04:38:05;;;;;;;8.55;1.98;;;;;;;;;;6285219;28;20239;-79
2023/07/19 04:41:09;;;;;;;6.15;2.03;;;;;;;;;;6283470;28;20458;-78
2023/07/19 04:44:15;;;;;;;4.35;1.77;;;;;;;;;;6286067;28;20263;-78
2023/07/19 04:47:19;;;;;;;11.55;2.40;;;;;;;;;;6285907;28;20513;-79
2023/07/19 04:50:24;;;;;;;5.50;2.03;;;;;;;;;;6289989;28;20239;-79
2023/07/19 04:53:28;;;;;;;4.25;2.05;;;;;;;;;;6288996;28;20271;-78
2023/07/19 04:56:33;;;;;;;5.82;1.92;;;;;;;;;;6288465;28;20271;-79
2023/07/19 04:59:39;;;;;;;3.30;1.95;;;;;;;;;;6291584;28;20543;-79
2023/07/19 05:02:43;;;;;;;8.68;2.00;;;;;;;;;;6287008;28;20303;-79
2023/07/19 05:05:48;;;;;;;8.45;2.03;;;;;;;;;;6288558;28;20259;-79
2023/07/19 05:08:53;;;;;;;2.75;1.77;;;;;;;;;;6288400;28;20263;-78
2023/07/19 05:11:57;;;;;;;5.95;1.70;;;;;;;;;;6304867;28;20279;-78
2023/07/19 05:15:03;;;;;;;9.68;1.98;;;;;;;;;;6289081;28;20398;-78
2023/07/19 05:18:07;;;;;;;10.00;1.80;;;;;;;;;;6304925;28;20276;-78
2023/07/19 05:21:11;;;;;;;4.32;1.77;;;;;;;;;;6287854;28;20267;-80
2023/07/19 05:24:14;;;;;;;6.10;1.88;;;;;;;;;;6289439;28;20251;-80
2023/07/19 05:27:19;;;;;;;6.88;2.25;;;;;;;;;;6287739;28;20583;-79
2023/07/19 05:30:24;;;;;;;5.70;2.05;;;;;;;;;;6289398;28;20516;-79
2023/07/19 05:33:27;;;;;;;3.70;1.80;;;;;;;;;;6289261;28;20240;-80
2023/07/19 05:36:31;;;;;;;8.70;1.90;;;;;;;;;;6288863;28;20243;-80
2023/07/19 05:39:35;;;;;;;8.93;2.03;;;;;;;;;;6289340;28;20496;-79
2023/07/19 05:42:39;;;;;;;9.82;1.60;;;;;;;;;;6288573;28;20244;-79
2023/07/19 05:45:45;;;;;;;4.82;2.08;;;;;;;;;;6288493;28;20417;-78
2023/07/19 05:48:48;;;;;;;3.28;1.60;;;;;;;;;;6288197;28;20267;-79
2023/07/19 05:51:52;;;;;;;5.63;2.05;;;;;;;;;;6288414;28;20239;-79
2023/07/19 05:54:56;;;;;;;6.65;1.70;;;;;;;;;;6289108;28;20260;-79
2023/07/19 05:58:00;;;;;;;6.68;1.83;;;;;;;;;;6288975;28;20256;-78
2023/07/19 06:01:07;;;;;;;3.67;1.80;;;;;;;;;;6287950;28;20290;-78
2023/07/19 06:04:13;;;;;;;4.53;1.80;;;;;;;;;;6288341;28;20240;-80
2023/07/19 06:07:17;;;;;;;3.53;1.88;;;;;;;;;;6288475;28;20263;-78
2023/07/19 06:10:21;;;;;;;7.45;2.05;;;;;;;;;;6286668;28;20267;-79
2023/07/19 06:13:24;;;;;;;8.98;2.33;;;;;;;;;;6288606;28;20235;-79
2023/07/19 06:16:30;;;;;;;4.45;1.75;;;;;;;;;;6288346;28;20402;-78
2023/07/19 06:19:34;;;;;;;5.43;1.88;;;;;;;;;;6288593;28;20240;-80
2023/07/19 06:22:37;;;;;;;9.05;1.95;;;;;;;;;;6287809;28;20243;-79
2023/07/19 06:25:42;;;;;;;7.10;1.88;;;;;;;;;;6288067;28;20239;-79
2023/07/19 06:28:46;;;;;;;6.22;1.90;;;;;;;;;;6288250;28;20340;-79
2023/07/19 06:31:51;;;;;;;8.32;2.05;;;;;;;;;;6287607;28;20463;-79
2023/07/19 06:34:55;;;;;;;5.57;2.17;;;;;;;;;;6287886;28;20236;-79
2023/07/19 06:37:58;;;;;;;4.32;2.10;;;;;;;;;;6287649;28;20260;-80
2023/07/19 06:41:03;;;;;;;8.63;2.22;;;;;;;;;;6287500;28;20239;-78
2023/07/19 06:44:06;;;;;;;5.70;1.70;;;;;;;;;;6287865;28;20236;-79
2023/07/19 06:47:13;;;;;;;6.78;1.80;;;;;;;;;;6287650;28;20259;-79
2023/07/19 06:50:17;;;;;;;4.78;1.75;;;;;;;;;;6287138;28;20247;-79
2023/07/19 06:53:21;;;;;;;3.08;1.73;;;;;;;;;;6287398;28;20379;-80
2023/07/19 06:56:25;;;;;;;10.02;2.30;;;;;;;;;;6287741;28;20231;-79
2023/07/19 06:59:28;;;;;;;4.07;1.80;;;;;;;;;;6287031;28;20244;-80
2023/07/19 07:02:34;;;;;;;5.22;1.70;;;;;;;;;;6286304;28;20291;-80
2023/07/19 07:05:38;;;;;;;3.67;1.55;;;;;;;;;;6286299;28;20231;-79
2023/07/19 07:08:42;;;;;;;6.28;1.85;;;;;;;;;;6287650;28;20259;-79
2023/07/19 07:11:45;;;;;;;4.38;1.70;;;;;;;;;;6288594;28;20236;-81
2023/07/19 07:14:49;;;;;;;9.02;1.98;;;;;;;;;;6286834;28;20258;-80
2023/07/19 07:17:55;;;;;;;3.30;1.52;;;;;;;;;;6286889;28;20255;-80
2023/07/19 07:20:59;;;;;;;4.18;1.70;;;;;;;;;;6301980;28;20462;-80
2023/07/19 07:24:03;;;;;;;4.38;1.90;;;;;;;;;;6286078;28;20418;-80
2023/07/19 07:27:08;;;;;;;3.95;1.80;;;;;;;;;;6289925;28;20232;-78
2023/07/19 07:30:12;;;;;;;6.88;1.88;;;;;;;;;;6286553;28;20228;-81
2023/07/19 07:33:19;;;;;;;4.78;1.75;;;;;;;;;;6286372;28;20525;-79
2023/07/19 07:36:24;;;;;;;6.57;1.65;;;;;;;;;;6285195;28;20367;-79
2023/07/19 07:39:28;;;;;;;4.60;2.00;;;;;;;;;;6286235;28;20244;-79
2023/07/19 07:42:34;;;;;;;5.15;2.05;;;;;;;;;;6286599;28;20239;-79
2023/07/19 07:45:37;;;;;;;3.50;1.83;;;;;;;;;;6286119;28;20239;-79
2023/07/19 07:48:42;;;;;;;7.72;1.90;;;;;;;;;;6285886;28;20263;-79
2023/07/19 07:51:46;;;;;;;4.15;1.60;;;;;;;;;;6286553;28;20243;-79
2023/07/19 07:54:51;;;;;;;4.47;1.63;;;;;;;;;;6286871;28;20248;-81
2023/07/19 07:57:55;;;;;;;6.20;1.83;;;;;;;;;;6285270;28;20279;-80
2023/07/19 08:01:00;;;;;;;4.05;1.90;;;;;;;;;;6285551;28;20279;-79
2023/07/19 08:04:06;;;;;;;2.40;1.60;;;;;;;;;;6286203;28;20243;-80
2023/07/19 08:07:12;;;;;;;9.15;2.15;;;;;;;;;;6287715;28;20235;-79
2023/07/19 08:10:20;;;;;;;4.05;1.80;;;;;;;;;;6287345;28;20259;-80
2023/07/19 08:13:23;;;;;;;4.57;1.77;;;;;;;;;;6286620;28;20531;-79
2023/07/19 08:16:27;;;;;;;4.15;1.83;;;;;;;;;;6285962;28;20248;-79
2023/07/19 08:19:34;;;;;;;5.47;1.90;;;;;;;;;;6286309;28;20248;-80
2023/07/19 08:22:39;;;;;;;5.55;1.70;;;;;;;;;;6286584;28;20235;-79
2023/07/19 08:25:43;;;;;;;5.97;1.73;;;;;;;;;;6290595;28;20240;-79
2023/07/19 08:28:47;;;;;;;3.17;1.40;;;;;;;;;;6290216;28;20270;-79
2023/07/19 08:31:50;;;;;;;3.75;1.50;;;;;;;;;;6290933;28;20239;-79
2023/07/19 08:34:56;;;;;;;7.07;2.20;;;;;;;;;;6290665;28;20247;-80
2023/07/19 08:37:59;;;;;;;5.78;1.35;;;;;;;;;;6290623;28;20292;-80
2023/07/19 08:41:05;;;;;;;7.82;2.20;;;;;;;;;;6290277;28;20500;-80
2023/07/19 08:44:11;;;;;;;4.97;1.95;;;;;;;;;;6290717;28;20235;-79
2023/07/19 08:47:15;;;;;;;9.23;1.60;;;;;;;;;;6290440;28;20256;-80
2023/07/19 08:50:21;;;;;;;5.47;1.70;;;;;;;;;;6289828;28;20259;-80
2023/07/19 08:53:26;;;;;;;1.63;1.52;;;;;;;;;;6290081;28;20243;-79
2023/07/19 08:56:31;;;;;;;3.25;1.60;;;;;;;;;;6290264;28;20241;-80
2023/07/19 08:59:35;;;;;;;3.67;1.65;;;;;;;;;;6290008;28;20243;-80
2023/07/19 09:02:39;;;;;;;5.93;1.58;;;;;;;;;;6289554;28;20282;-79
2023/07/19 09:05:45;;;;;;;7.75;1.90;;;;;;;;;;6289589;28;20239;-78
2023/07/19 09:08:50;;;;;;;2.42;1.50;;;;;;;;;;6289123;28;20268;-79
2023/07/19 09:11:54;;;;;;;6.22;2.05;;;;;;;;;;6289349;28;20240;-80
2023/07/19 09:14:59;;;;;;;4.65;1.75;;;;;;;;;;6289867;28;20232;-80
2023/07/19 09:18:05;;;;;;;4.55;1.60;;;;;;;;;;6287388;28;20275;-80
2023/07/19 09:21:10;;;;;;;3.00;1.95;;;;;;;;;;6287563;28;20438;-79
2023/07/19 09:24:14;;;;;;;3.60;1.65;;;;;;;;;;6288935;28;20244;-80
2023/07/19 09:27:24;;;;;;;3.17;1.65;;;;;;;;;;6289503;28;20239;-80
2023/07/19 09:30:28;;;;;;;5.55;1.80;;;;;;;;;;6289321;28;20271;-80
2023/07/19 09:33:32;;;;;;;5.03;1.80;;;;;;;;;;6287682;28;20439;-79
2023/07/19 09:36:37;;;;;;;2.40;1.63;;;;;;;;;;6291449;28;20311;-79
2023/07/19 09:39:41;;;;;;;3.33;1.90;;;;;;;;;;6289741;28;20492;-79
2023/07/19 09:42:45;;;;;;;3.17;1.63;;;;;;;;;;6288789;28;20247;-79
2023/07/19 09:45:50;;;;;;;3.22;1.80;;;;;;;;;;6288654;28;20255;-79
2023/07/19 09:48:53;;;;;;;3.63;1.70;;;;;;;;;;6288970;28;20263;-79
2023/07/19 09:51:59;;;;;;;3.05;1.70;;;;;;;;;;6289802;28;20429;-78
2023/07/19 09:55:03;;;;;;;4.68;2.15;;;;;;;;;;6291395;28;20236;-79
2023/07/19 09:58:10;;;;;;;6.18;1.98;;;;;;;;;;6287776;28;20407;-78
2023/07/19 10:01:14;;;;;;;5.63;2.08;;;;;;;;;;6288197;28;20298;-79
2023/07/19 10:04:23;;;;;;;4.03;1.63;;;;;;;;;;6288628;28;20235;-79
2023/07/19 10:07:28;;;;;;;4.65;2.08;;;;;;;;;;6288615;28;20252;-80
2023/07/19 10:10:57;;;;;;;5.13;2.20;;;;;;;;;;6288138;28;20267;-80
2023/07/19 10:14:01;;;;;;;5.75;1.70;;;;;;;;;;6288307;28;20251;-78
2023/07/19 10:17:08;;;;;;;12.05;2.03;;;;;;;;;;6288606;28;20244;-79
2023/07/19 10:20:14;;;;;;;4.20;2.00;;;;;;;;;;6288751;28;20239;-80
2023/07/19 10:23:19;;;;;;;4.47;2.35;;;;;;;;;;6288224;28;20235;-80
2023/07/19 10:26:29;;;;;;;3.45;2.05;;;;;;;;;;6287316;28;20275;-79
2023/07/19 10:29:40;;;;;;;4.05;1.55;;;;;;;;;;6287230;28;20267;-79
2023/07/19 10:32:47;;;;;;;5.95;2.22;;;;;;;;;;6287371;28;20240;-79
2023/07/19 10:35:52;;;;;;;2.33;1.80;;;;;;;;;;6287871;28;20251;-79
2023/07/19 10:38:58;;;;;;;1.70;1.60;;;;;;;;;;6287401;28;20459;-80
2023/07/19 10:42:01;;;;;;;6.82;2.35;;;;;;;;;;6287302;28;20464;-80
2023/07/19 10:45:06;;;;;;;5.72;2.20;;;;;;;;;;6287611;28;20299;-79
2023/07/19 10:48:11;;;;;;;5.60;2.40;;;;;;;;;;6286910;28;20231;-80
2023/07/19 10:51:15;;;;;;;2.83;1.80;;;;;;;;;;6286630;28;20268;-78
2023/07/19 10:54:20;;;;;;;5.30;1.92;;;;;;;;;;6287144;28;20240;-79
2023/07/19 10:57:27;;;;;;;1.77;1.67;;;;;;;;;;6287045;28;20255;-80
2023/07/19 11:00:33;;;;;;;6.55;1.80;;;;;;;;;;6287030;28;20256;-79
2023/07/19 11:03:37;;;;;;;6.38;1.92;;;;;;;;;;6237789;28;20237;-80
2023/07/19 11:06:55;;;;;;;4.35;4.03;;;;;;;;;;6237925;28;20237;-80
2023/07/19 11:10:01;;;;;;;5.05;1.90;;;;;;;;;;6237836;28;20269;-79
2023/07/19 11:13:05;;;;;;;2.72;1.88;;;;;;;;;;6237251;28;20245;-80
2023/07/19 11:16:09;;;;;;;1.85;1.60;;;;;;;;;;6237125;28;20245;-79
2023/07/19 11:19:12;;;;;;;3.70;1.30;;;;;;;;;;6237156;28;20237;-80
2023/07/19 11:22:21;;;;;;;1.80;1.00;;;;;;;;;;6237791;28;20252;-80
2023/07/19 11:25:27;;;;;;;3.47;1.58;;;;;;;;;;6235176;28;20265;-80
2023/07/19 11:28:35;;;;;;;3.05;1.50;;;;;;;;;;6237766;28;20249;-79
2023/07/19 11:31:39;;;;;;;1.48;1.30;;;;;;;;;;6237122;28;20260;-80
2023/07/19 11:34:47;;;;;;;1.25;1.10;;;;;;;;;;6236640;28;20352;-80
2023/07/19 11:37:52;;;;;;;1.30;1.20;;;;;;;;;;6236701;28;20241;-80
2023/07/19 11:40:58;;;;;;;1.05;0.90;;;;;;;;;;6237270;28;20244;-80
2023/07/19 11:44:03;;;;;;;1.38;0.93;;;;;;;;;;6236802;28;20236;-80
2023/07/19 11:47:06;;;;;;;1.00;1.00;;;;;;;;;;6237045;28;20244;-79
2023/07/19 11:50:11;;;;;;;1.70;1.17;;;;;;;;;;6236366;28;20264;-79
2023/07/19 11:53:16;;;;;;;1.25;1.15;;;;;;;;;;6237596;28;20250;-79
2023/07/19 11:56:21;;;;;;;1.58;1.10;;;;;;;;;;6239760;28;20241;-80
2023/07/19 11:59:25;;;;;;;1.40;1.30;;;;;;;;;;6236721;28;20236;-79
2023/07/19 12:02:29;;;;;;;3.33;1.10;;;;;;;;;;6273746;28;20283;-78
2023/07/19 12:05:34;;;;;;;2.03;1.15;;;;;;;;;;6288070;28;20262;-79
2023/07/19 12:08:38;;;;;;;1.45;1.10;;;;;;;;;;6286474;28;20418;-79
2023/07/19 12:11:45;;;;;;;1.75;1.33;;;;;;;;;;6286440;28;20452;-79
2023/07/19 12:14:49;;;;;;;2.97;1.30;;;;;;;;;;6286534;28;20235;-79
2023/07/19 12:17:52;;;;;;;2.30;1.40;;;;;;;;;;6286053;28;20240;-79
2023/07/19 12:20:56;;;;;;;5.80;1.92;;;;;;;;;;6287315;28;20244;-81
2023/07/19 12:24:00;;;;;;;1.63;1.35;;;;;;;;;;6286988;28;20252;-80
2023/07/19 12:27:06;;;;;;;1.58;1.40;;;;;;;;;;6285925;28;20236;-79
2023/07/19 12:30:11;;;;;;;1.38;1.27;;;;;;;;;;6284827;28;20306;-79
2023/07/19 12:33:15;;;;;;;2.53;1.30;;;;;;;;;;6285910;28;20237;-80
2023/07/19 12:36:18;;;;;;;2.35;1.20;;;;;;;;;;6285897;28;20235;-80
2023/07/19 12:39:24;;;;;;;2.30;1.20;;;;;;;;;;6285839;28;20331;-80
2023/07/19 12:42:29;;;;;;;1.85;1.40;;;;;;;;;;6285807;28;20497;-79
2023/07/19 12:45:33;;;;;;;2.30;1.38;;;;;;;;;;6285642;28;20239;-79
2023/07/19 12:48:38;;;;;;;2.20;1.33;;;;;;;;;;6285660;28;20504;-79
2023/07/19 12:51:44;;;;;;;1.17;1.17;;;;;;;;;;6283855;28;20451;-79
2023/07/19 12:54:48;;;;;;;1.48;1.40;;;;;;;;;;6286262;28;20528;-79
2023/07/19 12:57:54;;;;;;;1.60;1.50;;;;;;;;;;6285722;28;20243;-80
2023/07/19 13:00:58;;;;;;;2.22;1.23;;;;;;;;;;6284985;28;20291;-79
2023/07/19 13:04:02;;;;;;;1.45;1.30;;;;;;;;;;6285113;28;20235;-79
2023/07/19 13:07:08;;;;;;;1.70;1.33;;;;;;;;;;6285500;28;20240;-79
2023/07/19 13:10:13;;;;;;;1.58;1.50;;;;;;;;;;6287712;28;20367;-80
2023/07/19 13:13:19;;;;;;;1.23;1.20;;;;;;;;;;6290600;28;20268;-80
2023/07/19 13:16:23;;;;;;;9.30;1.38;;;;;;;;;;6292330;28;20232;-81
2023/07/19 13:19:27;;;;;;;3.10;1.25;;;;;;;;;;6291616;28;20243;-80
2023/07/19 13:22:31;;;;;;;1.20;1.20;;;;;;;;;;6289830;28;20271;-79
2023/07/19 13:25:35;;;;;;;2.75;1.30;;;;;;;;;;6289789;28;20482;-80
2023/07/19 13:28:41;;;;;;;1.85;1.15;;;;;;;;;;6289740;28;20239;-79
2023/07/19 13:31:44;;;;;;;1.08;1.08;;;;;;;;;;6289166;28;20269;-79
2023/07/19 13:34:48;;;;;;;0.90;0.90;;;;;;;;;;6289160;28;20239;-79
2023/07/19 13:37:52;;;;;;;2.75;0.90;;;;;;;;;;6289175;28;20512;-79
2023/07/19 13:40:59;;;;;;;0.80;0.80;;;;;;;;;;6289047;28;20248;-79
2023/07/19 13:44:04;;;;;;;1.00;0.90;;;;;;;;;;6286538;28;20262;-80
2023/07/19 13:47:08;;;;;;;1.25;0.90;;;;;;;;;;6288882;28;20477;-79
2023/07/19 13:50:12;;;;;;;0.80;0.80;;;;;;;;;;6288563;28;20408;-79
2023/07/19 13:53:16;;;;;;;0.77;0.77;;;;;;;;;;6288353;28;20263;-81
2023/07/19 13:56:20;;;;;;;0.80;0.80;;;;;;;;;;6289236;28;20244;-80
2023/07/19 13:59:25;;;;;;;1.38;0.90;;;;;;;;;;6288635;28;20244;-80
2023/07/19 14:02:30;;;;;;;0.80;0.80;;;;;;;;;;6288078;28;20300;-80
2023/07/19 14:05:34;;;;;;;0.90;0.90;;;;;;;;;;6289322;28;20239;-79
2023/07/19 14:08:38;;;;;;;0.70;0.70;;;;;;;;;;6288580;28;20243;-80
2023/07/19 14:11:41;;;;;;;0.77;0.77;;;;;;;;;;6288643;28;20263;-79
2023/07/19 14:14:49;;;;;;;0.82;0.82;;;;;;;;;;6287986;28;20240;-78
2023/07/19 14:17:53;;;;;;;1.75;0.80;;;;;;;;;;6288219;28;20236;-78
2023/07/19 14:20:56;;;;;;;1.05;1.05;;;;;;;;;;6287784;28;20424;-79
2023/07/19 14:24:00;;;;;;;1.40;1.40;;;;;;;;;;6287991;28;20294;-79
2023/07/19 14:27:05;;;;;;;1.10;1.10;;;;;;;;;;6291044;28;20244;-80
2023/07/19 14:30:10;;;;;;;0.90;0.90;;;;;;;;;;6287850;28;20256;-79
2023/07/19 14:33:16;;;;;;;2.47;0.80;;;;;;;;;;6287773;28;20263;-79
2023/07/19 14:36:20;;;;;;;1.17;0.68;;;;;;;;;;6287347;28;20248;-79
2023/07/19 14:39:28;;;;;;;0.60;0.60;;;;;;;;;;6287193;28;20240;-79
2023/07/19 14:42:32;;;;;;;1.85;0.80;;;;;;;;;;6287567;28;20267;-78
2023/07/19 14:45:39;;;;;;;0.65;0.65;;;;;;;;;;6287634;28;20243;-79
2023/07/19 14:48:43;;;;;;;0.70;0.70;;;;;;;;;;6287841;28;20460;-79
2023/07/19 14:51:47;;;;;;;0.73;0.60;;;;;;;;;;6290353;28;20266;-78
2023/07/19 14:54:51;;;;;;;0.52;0.52;;;;;;;;;;6286054;28;20270;-78
2023/07/19 14:57:54;;;;;;;0.70;0.57;;;;;;;;;;6287269;28;20248;-78
2023/07/19 15:01:00;;;;;;;0.75;0.70;;;;;;;;;;6286814;28;20567;-79
2023/07/19 15:04:04;;;;;;;0.80;0.80;;;;;;;;;;6286747;28;20243;-79
2023/07/19 15:07:09;;;;;;;0.85;0.85;;;;;;;;;;6287122;28;20235;-79
2023/07/19 15:10:14;;;;;;;0.90;0.90;;;;;;;;;;6287172;28;20241;-78
2023/07/19 15:13:18;;;;;;;0.70;0.70;;;;;;;;;;6286912;28;20263;-79
2023/07/19 15:16:25;;;;;;;0.80;0.80;;;;;;;;;;6286979;28;20244;-79
2023/07/19 15:19:29;;;;;;;0.90;0.90;;;;;;;;;;6287321;28;20239;-79
2023/07/19 15:22:33;;;;;;;0.90;0.90;;;;;;;;;;6286687;28;20239;-79
2023/07/19 15:25:37;;;;;;;2.28;1.00;;;;;;;;;;6284603;28;20271;-79
2023/07/19 15:28:41;;;;;;;0.80;0.80;;;;;;;;;;6286141;28;20239;-79
2023/07/19 15:31:47;;;;;;;1.02;1.02;;;;;;;;;;6286131;28;20293;-79
2023/07/19 15:34:51;;;;;;;1.00;1.00;;;;;;;;;;6287705;28;20232;-79
2023/07/19 15:37:54;;;;;;;0.80;0.80;;;;;;;;;;6287310;28;20239;-78
2023/07/19 15:40:58;;;;;;;0.90;0.90;;;;;;;;;;6286187;28;20514;-80
2023/07/19 15:44:02;;;;;;;4.47;1.00;;;;;;;;;;6286408;28;20243;-78
2023/07/19 15:47:21;;;;;;;3.72;0.88;;;;;;;;;;6285714;28;20560;-78
2023/07/19 15:50:24;;;;;;;2.05;0.90;;;;;;;;;;6286306;28;20247;-79
2023/07/19 15:53:32;;;;;;;1.13;1.13;;;;;;;;;;6285871;28;20543;-78
2023/07/19 15:56:36;;;;;;;1.65;1.10;;;;;;;;;;6285930;28;20248;-79
2023/07/19 15:59:40;;;;;;;1.13;1.10;;;;;;;;;;6286505;28;20239;-79
2023/07/19 16:02:45;;;;;;;0.95;0.95;;;;;;;;;;6285940;28;20286;-79
2023/07/19 16:05:49;;;;;;;1.10;1.10;;;;;;;;;;6285461;28;20243;-79
2023/07/19 16:08:54;;;;;;;1.20;1.20;;;;;;;;;;6285866;28;20252;-78
2023/07/19 16:11:58;;;;;;;1.85;1.75;;;;;;;;;;6285905;28;20239;-79
2023/07/19 16:15:01;;;;;;;1.30;1.30;;;;;;;;;;6283956;28;20286;-79
2023/07/19 16:18:07;;;;;;;3.13;1.30;;;;;;;;;;6286245;28;20419;-79
2023/07/19 16:21:11;;;;;;;1.20;1.20;;;;;;;;;;6286081;28;20239;-78
2023/07/19 16:24:15;;;;;;;2.47;1.20;;;;;;;;;;6286079;28;20247;-79
2023/07/19 16:27:18;;;;;;;2.50;1.05;;;;;;;;;;6285967;28;20504;-78
2023/07/19 16:30:22;;;;;;;3.67;2.60;;;;;;;;;;6285635;28;20248;-79
2023/07/19 16:33:27;;;;;;;2.03;1.20;;;;;;;;;;6285975;28;20331;-79
2023/07/19 16:36:32;;;;;;;2.40;2.28;;;;;;;;;;6286123;28;20239;-80
2023/07/19 16:39:35;;;;;;;1.33;1.30;;;;;;;;;;6285371;28;20375;-79
2023/07/19 16:42:39;;;;;;;1.10;1.10;;;;;;;;;;6285367;28;20245;-80
2023/07/19 16:45:43;;;;;;;1.10;1.10;;;;;;;;;;6290550;28;20525;-79
2023/07/19 16:48:48;;;;;;;2.05;1.10;;;;;;;;;;6290626;28;20243;-80
2023/07/19 16:51:52;;;;;;;2.17;1.52;;;;;;;;;;6290814;28;20236;-79
2023/07/19 16:54:56;;;;;;;1.50;1.23;;;;;;;;;;6292182;28;20279;-79
2023/07/19 16:58:02;;;;;;;1.02;1.02;;;;;;;;;;6290434;28;20239;-78
2023/07/19 17:01:07;;;;;;;1.00;1.00;;;;;;;;;;6289571;28;20539;-79
2023/07/19 17:04:12;;;;;;;1.30;1.30;;;;;;;;;;6290132;28;20239;-79
2023/07/19 17:07:16;;;;;;;1.00;1.00;;;;;;;;;;6290253;28;20255;-79
2023/07/19 17:10:20;;;;;;;1.70;1.10;;;;;;;;;;6289965;28;20244;-78
2023/07/19 17:13:23;;;;;;;1.00;1.00;;;;;;;;;;6288201;28;20417;-78
2023/07/19 17:16:28;;;;;;;1.00;1.00;;;;;;;;;;6289630;28;20239;-80
2023/07/19 17:19:34;;;;;;;1.40;1.30;;;;;;;;;;6291616;28;20284;-79
2023/07/19 17:22:39;;;;;;;1.42;1.33;;;;;;;;;;6289396;28;20440;-78
2023/07/19 17:25:43;;;;;;;1.20;1.20;;;;;;;;;;6289569;28;20239;-78
2023/07/19 17:28:48;;;;;;;0.90;0.90;;;;;;;;;;6289279;28;20239;-78
2023/07/19 17:31:52;;;;;;;1.00;1.00;;;;;;;;;;6289125;28;20372;-79
2023/07/19 17:34:57;;;;;;;0.98;0.98;;;;;;;;;;6289215;28;20263;-79
2023/07/19 17:38:02;;;;;;;1.65;1.00;;;;;;;;;;6288233;28;20275;-79
2023/07/19 17:41:07;;;;;;;0.98;0.98;;;;;;;;;;6289128;28;20239;-78
2023/07/19 17:44:11;;;;;;;1.45;1.35;;;;;;;;;;6289032;28;20517;-79
2023/07/19 17:47:15;;;;;;;1.90;1.70;;;;;;;;;;6289257;28;20235;-79
2023/07/19 17:50:20;;;;;;;1.30;1.30;;;;;;;;;;6288207;28;20291;-78
2023/07/19 17:53:24;;;;;;;1.10;1.10;;;;;;;;;;6288722;28;20247;-79
2023/07/19 17:56:27;;;;;;;0.95;0.90;;;;;;;;;;6288322;28;20245;-79
2023/07/19 17:59:31;;;;;;;0.90;0.90;;;;;;;;;;6289458;28;20325;-80
2023/07/19 18:02:35;;;;;;;0.95;0.90;;;;;;;;;;6288415;28;20299;-80
2023/07/19 18:05:40;;;;;;;1.38;1.38;;;;;;;;;;6288207;28;20256;-80
2023/07/19 18:08:44;;;;;;;0.80;0.80;;;;;;;;;;6288225;28;20232;-80
2023/07/19 18:11:48;;;;;;;0.80;0.80;;;;;;;;;;6288019;28;20415;-78
2023/07/19 18:14:52;;;;;;;1.10;1.10;;;;;;;;;;6288456;28;20263;-78
2023/07/19 18:17:56;;;;;;;1.13;1.13;;;;;;;;;;6288403;28;20239;-78
2023/07/19 18:21:01;;;;;;;0.90;0.90;;;;;;;;;;6288874;28;20251;-79
2023/07/19 18:24:06;;;;;;;0.98;0.98;;;;;;;;;;6287612;28;20247;-78
2023/07/19 18:27:10;;;;;;;1.23;1.23;;;;;;;;;;6288155;28;20240;-79